createdAt,value
2018-07-22T07:49:25.346Z,17.50
2018-07-22T07:50:00.568Z,12.80
2018-07-22T07:50:35.756Z,14.70
2018-07-22T07:51:11.171Z,14.20
2018-07-22T07:51:46.463Z,11.70
2018-07-22T07:54:23.026Z,13.10
2018-07-22T07:54:59.167Z,13.40
2018-07-22T07:55:34.466Z,11.00
2018-07-22T07:56:09.901Z,9.80
2018-07-22T07:56:45.410Z,13.60
2018-07-22T07:57:20.931Z,14.00
2018-07-22T07:57:56.297Z,14.10
2018-07-22T07:58:31.677Z,14.70
2018-07-22T07:59:07.593Z,10.90
2018-07-22T07:59:42.943Z,9.30
2018-07-22T08:00:19.468Z,10.70
2018-07-22T08:00:56.058Z,11.50
2018-07-22T08:01:31.361Z,11.20
2018-07-22T08:02:06.500Z,11.50
2018-07-22T08:02:41.808Z,10.10
2018-07-22T08:03:17.223Z,10.30
2018-07-22T08:03:53.025Z,8.90
2018-07-22T08:04:28.323Z,9.40
2018-07-22T08:05:03.824Z,11.10
2018-07-22T08:05:39.313Z,13.60
2018-07-22T08:06:14.680Z,13.20
2018-07-22T08:06:50.175Z,13.40
2018-07-22T08:07:25.397Z,11.60
2018-07-22T08:08:00.842Z,11.10
2018-07-22T08:08:36.502Z,12.90
2018-07-22T08:09:11.834Z,12.90
2018-07-22T08:09:47.029Z,10.50
2018-07-22T08:10:22.481Z,11.00
2018-07-22T08:10:58.243Z,10.30
2018-07-22T08:11:33.730Z,10.00
2018-07-22T08:12:08.902Z,10.30
2018-07-22T08:12:44.216Z,11.10
2018-07-22T08:13:19.524Z,11.30
2018-07-22T08:13:54.942Z,10.60
2018-07-22T08:14:30.731Z,10.40
2018-07-22T08:15:05.900Z,10.10
2018-07-22T08:15:42.021Z,10.10
2018-07-22T08:16:17.474Z,8.90
2018-07-22T08:16:52.931Z,9.00
2018-07-22T08:17:28.316Z,9.20
2018-07-22T08:18:03.903Z,8.90
2018-07-22T08:18:39.292Z,7.80
2018-07-22T08:19:14.639Z,6.50
2018-07-22T08:19:50.657Z,9.00
2018-07-22T08:20:26.193Z,10.20
2018-07-22T08:21:01.391Z,8.70
2018-07-22T08:21:37.129Z,8.40
2018-07-22T08:22:12.518Z,8.20
2018-07-22T08:22:48.245Z,8.80
2018-07-22T08:23:23.868Z,9.80
2018-07-22T08:23:59.812Z,9.60
2018-07-22T08:24:35.371Z,9.40
2018-07-22T08:25:10.972Z,9.00
2018-07-22T08:25:46.290Z,8.70
2018-07-22T08:26:21.750Z,8.10
2018-07-22T08:26:57.258Z,9.60
2018-07-22T08:27:32.664Z,11.80
2018-07-22T08:28:08.098Z,10.80
2018-07-22T08:28:43.613Z,8.80
2018-07-22T08:29:19.042Z,9.00
2018-07-22T08:29:54.478Z,9.70
2018-07-22T08:30:29.750Z,10.60
2018-07-22T08:31:05.216Z,9.70
2018-07-22T08:31:40.559Z,9.10
2018-07-22T08:32:15.929Z,8.00
2018-07-22T08:32:51.324Z,6.90
2018-07-22T08:33:26.636Z,8.50
2018-07-22T08:34:02.149Z,7.10
2018-07-22T08:34:37.600Z,6.80
2018-07-22T08:35:12.951Z,9.10
2018-07-22T08:35:49.207Z,9.60
2018-07-22T08:36:24.355Z,6.90
2018-07-22T08:36:59.675Z,7.10
2018-07-22T08:37:35.202Z,7.60
2018-07-22T08:38:10.507Z,7.60
2018-07-22T08:38:45.719Z,6.70
2018-07-22T08:39:20.910Z,6.80
2018-07-22T08:39:56.058Z,9.00
2018-07-22T08:40:31.601Z,7.10
2018-07-22T08:41:06.972Z,9.50
2018-07-22T08:41:42.483Z,8.30
2018-07-22T08:42:17.697Z,9.00
2018-07-22T08:42:53.098Z,7.60
2018-07-22T08:43:28.419Z,7.80
2018-07-22T08:44:03.680Z,7.80
2018-07-22T08:44:39.039Z,8.10
2018-07-22T08:45:14.659Z,8.10
2018-07-22T08:45:50.282Z,8.20
2018-07-22T08:46:25.845Z,9.10
2018-07-22T08:47:01.327Z,10.60
2018-07-22T08:47:37.014Z,7.20
2018-07-22T08:48:12.553Z,6.90
2018-07-22T08:48:48.000Z,7.70
2018-07-22T08:49:23.693Z,7.60
2018-07-22T08:49:59.328Z,7.50
2018-07-22T08:50:34.558Z,7.60
2018-07-22T08:51:09.768Z,6.70
2018-07-22T08:51:45.435Z,7.10
2018-07-22T08:52:21.232Z,7.40
2018-07-22T08:52:56.480Z,8.50
2018-07-22T08:53:31.986Z,10.60
2018-07-22T08:54:07.400Z,7.80
2018-07-22T08:54:42.826Z,6.10
2018-07-22T08:55:17.981Z,6.80
2018-07-22T08:55:53.356Z,5.70
2018-07-22T08:56:28.713Z,7.50
2018-07-22T08:57:04.051Z,6.90
2018-07-22T08:57:39.747Z,10.10
2018-07-22T08:58:15.279Z,9.90
2018-07-22T08:58:50.491Z,6.20
2018-07-22T08:59:25.943Z,5.20
2018-07-22T09:00:01.242Z,5.90
2018-07-22T09:00:38.671Z,6.20
2018-07-22T09:01:14.519Z,6.20
2018-07-22T09:01:49.872Z,7.80
2018-07-22T09:02:25.074Z,6.70
2018-07-22T09:03:00.434Z,5.90
2018-07-22T09:03:35.581Z,6.30
2018-07-22T09:04:10.776Z,4.80
2018-07-22T09:04:46.208Z,5.90
2018-07-22T09:05:21.561Z,7.00
2018-07-22T09:05:56.557Z,7.20
2018-07-22T09:06:31.988Z,9.70
2018-07-22T09:07:07.215Z,7.90
2018-07-22T09:07:42.942Z,5.40
2018-07-22T09:08:18.395Z,5.80
2018-07-22T09:08:53.968Z,6.60
2018-07-22T09:09:29.326Z,6.50
2018-07-22T09:10:04.934Z,5.50
2018-07-22T09:10:40.658Z,6.20
2018-07-22T09:11:16.142Z,6.90
2018-07-22T09:11:51.590Z,7.50
2018-07-22T09:12:26.936Z,5.80
2018-07-22T09:13:02.393Z,4.70
2018-07-22T09:13:37.912Z,5.10
2018-07-22T09:14:13.121Z,6.40
2018-07-22T09:14:48.574Z,5.80
2018-07-22T09:15:23.886Z,4.60
2018-07-22T09:15:59.214Z,5.90
2018-07-22T09:16:34.443Z,4.80
2018-07-22T09:17:10.107Z,4.90
2018-07-22T09:17:45.775Z,5.40
2018-07-22T09:18:20.988Z,6.60
2018-07-22T09:18:56.234Z,5.90
2018-07-22T09:19:31.428Z,7.10
2018-07-22T09:20:06.792Z,6.30
2018-07-22T09:20:42.875Z,5.30
2018-07-22T09:21:18.462Z,5.00
2018-07-22T09:21:53.816Z,5.20
2018-07-22T09:22:29.225Z,5.20
2018-07-22T09:23:04.654Z,5.70
2018-07-22T09:23:40.243Z,6.90
2018-07-22T09:24:15.594Z,6.40
2018-07-22T09:24:50.928Z,7.20
2018-07-22T09:25:26.467Z,9.90
2018-07-22T09:26:01.701Z,7.70
2018-07-22T09:26:37.069Z,4.80
2018-07-22T09:27:12.657Z,5.80
2018-07-22T09:27:48.290Z,6.40
2018-07-22T09:28:23.495Z,5.70
2018-07-22T09:28:59.000Z,6.50
2018-07-22T09:29:34.195Z,5.70
2018-07-22T09:30:09.819Z,5.00
2018-07-22T09:30:45.291Z,4.20
2018-07-22T09:31:20.630Z,4.70
2018-07-22T09:31:56.257Z,6.60
2018-07-22T09:32:31.670Z,6.60
2018-07-22T09:33:06.686Z,5.10
2018-07-22T09:33:41.837Z,5.30
2018-07-22T09:34:16.953Z,6.20
2018-07-22T09:34:52.232Z,5.70
2018-07-22T09:35:27.667Z,6.10
2018-07-22T09:36:03.448Z,5.10
2018-07-22T09:36:39.084Z,5.60
2018-07-22T09:37:14.541Z,6.50
2018-07-22T09:37:50.100Z,5.70
2018-07-22T09:38:25.452Z,6.00
2018-07-22T09:39:00.643Z,6.10
2018-07-22T09:39:35.875Z,6.70
2018-07-22T09:40:11.090Z,6.80
2018-07-22T09:40:46.519Z,6.00
2018-07-22T09:41:21.645Z,5.70
2018-07-22T09:41:57.024Z,4.80
2018-07-22T09:42:32.296Z,5.40
2018-07-22T09:43:08.139Z,6.20
2018-07-22T09:43:43.578Z,6.60
2018-07-22T09:44:18.782Z,5.30
2018-07-22T09:44:54.208Z,4.90
2018-07-22T09:45:29.604Z,6.80
2018-07-22T09:46:05.163Z,7.10
2018-07-22T09:46:41.380Z,5.40
2018-07-22T09:47:17.026Z,6.10
2018-07-22T09:47:52.673Z,4.80
2018-07-22T09:48:28.199Z,6.90
2018-07-22T09:49:03.312Z,7.90
2018-07-22T09:49:38.857Z,6.10
2018-07-22T09:50:14.349Z,5.30
2018-07-22T09:50:49.570Z,6.30
2018-07-22T09:51:25.033Z,6.60
2018-07-22T09:52:00.562Z,5.10
2018-07-22T09:52:35.790Z,4.40
2018-07-22T09:53:11.089Z,6.00
2018-07-22T09:53:46.430Z,5.00
2018-07-22T09:54:21.511Z,6.60
2018-07-22T09:54:57.064Z,8.30
2018-07-22T09:55:32.171Z,7.00
2018-07-22T09:56:07.708Z,7.10
2018-07-22T09:56:42.940Z,4.60
2018-07-22T09:57:18.267Z,4.80
2018-07-22T09:57:53.601Z,5.70
2018-07-22T09:58:29.056Z,7.10
2018-07-22T09:59:04.337Z,9.30
2018-07-22T09:59:39.773Z,7.70
2018-07-22T10:00:15.378Z,6.60
2018-07-22T10:00:50.696Z,6.60
2018-07-22T10:01:26.151Z,5.60
2018-07-22T10:02:01.586Z,4.80
2018-07-22T10:02:37.289Z,4.80
2018-07-22T10:03:12.949Z,4.40
2018-07-22T10:03:48.155Z,6.60
2018-07-22T10:04:23.536Z,9.20
2018-07-22T10:04:58.900Z,9.40
2018-07-22T10:05:34.436Z,7.80
2018-07-22T10:06:09.960Z,6.20
2018-07-22T10:06:45.130Z,5.60
2018-07-22T10:07:20.732Z,7.80
2018-07-22T10:07:55.928Z,7.50
2018-07-22T10:08:31.324Z,4.20
2018-07-22T10:09:06.673Z,5.50
2018-07-22T10:09:41.882Z,6.20
2018-07-22T10:10:17.233Z,5.50
2018-07-22T10:10:52.630Z,4.80
2018-07-22T10:11:28.197Z,6.10
2018-07-22T10:12:03.435Z,7.50
2018-07-22T10:12:38.958Z,8.70
2018-07-22T10:13:14.617Z,6.60
2018-07-22T10:13:50.184Z,6.70
2018-07-22T10:14:25.909Z,6.60
2018-07-22T10:15:01.173Z,6.10
2018-07-22T10:15:36.867Z,4.60
2018-07-22T10:16:12.162Z,4.40
2018-07-22T10:16:47.683Z,5.20
2018-07-22T10:17:22.997Z,4.70
2018-07-22T10:17:58.229Z,6.30
2018-07-22T10:18:33.591Z,4.50
2018-07-22T10:19:09.010Z,4.40
2018-07-22T10:19:44.615Z,4.10
2018-07-22T10:20:19.722Z,3.90
2018-07-22T10:20:55.338Z,5.10
2018-07-22T10:21:30.611Z,7.60
2018-07-22T10:22:06.189Z,7.20
2018-07-22T10:22:41.797Z,7.90
2018-07-22T10:23:17.449Z,6.70
2018-07-22T10:23:52.729Z,6.30
2018-07-22T10:24:28.314Z,5.80
2018-07-22T10:25:03.503Z,5.90
2018-07-22T10:25:39.428Z,7.50
2018-07-22T10:26:14.506Z,6.20
2018-07-22T10:26:50.208Z,4.70
2018-07-22T10:27:25.614Z,5.80
2018-07-22T10:28:00.746Z,5.10
2018-07-22T10:28:36.076Z,4.70
2018-07-22T10:29:11.431Z,5.10
2018-07-22T10:29:46.775Z,14.60
2018-07-22T10:30:22.228Z,15.10
2018-07-22T10:30:57.840Z,6.00
2018-07-22T10:31:33.002Z,4.90
2018-07-22T10:32:08.311Z,5.80
2018-07-22T10:32:43.640Z,5.30
2018-07-22T10:33:19.254Z,5.70
2018-07-22T10:33:54.406Z,6.40
2018-07-22T10:34:30.219Z,7.00
2018-07-22T10:35:05.594Z,5.00
2018-07-22T10:35:40.839Z,5.40
2018-07-22T10:36:16.078Z,4.90
2018-07-22T10:36:51.485Z,4.00
2018-07-22T10:37:26.506Z,4.80
2018-07-22T10:38:02.015Z,4.90
2018-07-22T10:38:37.546Z,5.90
2018-07-22T10:39:12.896Z,9.50
2018-07-22T10:39:48.109Z,5.80
2018-07-22T10:40:23.581Z,5.00
2018-07-22T10:40:58.918Z,4.60
2018-07-22T10:41:34.262Z,4.40
2018-07-22T10:42:09.767Z,4.50
2018-07-22T10:42:44.823Z,4.80
2018-07-22T10:43:20.423Z,6.10
2018-07-22T10:43:55.716Z,5.60
2018-07-22T10:44:31.039Z,4.10
2018-07-22T10:45:06.200Z,5.10
2018-07-22T10:45:42.026Z,5.90
2018-07-22T10:46:17.255Z,4.40
2018-07-22T10:46:52.599Z,4.70
2018-07-22T10:47:28.007Z,4.90
2018-07-22T10:48:03.761Z,5.70
2018-07-22T10:48:39.258Z,5.30
2018-07-22T10:49:14.657Z,5.30
2018-07-22T10:49:49.915Z,5.40
2018-07-22T10:50:25.649Z,4.20
2018-07-22T10:51:01.281Z,5.30
2018-07-22T10:51:36.536Z,6.20
2018-07-22T10:52:11.795Z,5.00
2018-07-22T10:52:47.026Z,4.40
2018-07-22T10:53:22.477Z,5.70
2018-07-22T10:53:57.589Z,4.30
2018-07-22T10:54:33.135Z,4.80
2018-07-22T10:55:08.547Z,6.40
2018-07-22T10:55:46.394Z,7.20
2018-07-22T10:56:21.918Z,5.50
2018-07-22T10:56:57.271Z,4.80
2018-07-22T10:57:32.578Z,6.30
2018-07-22T10:58:07.822Z,7.40
2018-07-22T10:58:43.361Z,6.60
2018-07-22T10:59:19.066Z,5.60
2018-07-22T10:59:54.484Z,5.50
2018-07-22T11:00:29.710Z,5.20
2018-07-22T11:01:05.133Z,4.40
2018-07-22T11:01:40.492Z,5.40
2018-07-22T11:02:15.949Z,5.20
2018-07-22T11:02:51.478Z,5.70
2018-07-22T11:03:26.683Z,5.20
2018-07-22T11:04:01.899Z,5.60
2018-07-22T11:04:37.238Z,5.60
2018-07-22T11:05:12.602Z,6.10
2018-07-22T11:05:47.936Z,6.00
2018-07-22T11:06:23.496Z,5.00
2018-07-22T11:06:58.699Z,5.10
2018-07-22T11:07:34.214Z,6.60
2018-07-22T11:08:09.435Z,6.40
2018-07-22T11:08:44.766Z,5.60
2018-07-22T11:09:19.875Z,5.50
2018-07-22T11:09:55.216Z,5.40
2018-07-22T11:10:30.522Z,5.60
2018-07-22T11:11:05.647Z,4.80
2018-07-22T11:11:41.205Z,5.00
2018-07-22T11:12:16.649Z,6.10
2018-07-22T11:12:52.081Z,5.00
2018-07-22T11:13:27.457Z,4.10
2018-07-22T11:14:03.121Z,4.30
2018-07-22T11:14:38.738Z,6.40
2018-07-22T11:15:14.015Z,6.50
2018-07-22T11:15:49.412Z,4.80
2018-07-22T11:16:24.869Z,4.30
2018-07-22T11:17:00.000Z,4.10
2018-07-22T11:17:35.127Z,6.30
2018-07-22T11:18:10.373Z,6.10
2018-07-22T11:18:45.818Z,5.80
2018-07-22T11:19:20.857Z,4.80
2018-07-22T11:19:56.389Z,5.10
2018-07-22T11:20:31.800Z,5.30
2018-07-22T11:21:07.310Z,5.20
2018-07-22T11:21:42.625Z,5.10
2018-07-22T11:22:17.845Z,5.30
2018-07-22T11:22:53.188Z,4.90
2018-07-22T11:23:28.732Z,5.80
2018-07-22T11:24:04.097Z,5.20
2018-07-22T11:24:39.619Z,5.30
2018-07-22T11:25:15.047Z,5.30
2018-07-22T11:25:50.160Z,7.00
2018-07-22T11:26:25.689Z,6.60
2018-07-22T11:27:01.241Z,5.20
2018-07-22T11:27:36.658Z,6.30
2018-07-22T11:28:12.122Z,4.90
2018-07-22T11:28:47.505Z,5.60
2018-07-22T11:29:22.696Z,5.50
2018-07-22T11:29:58.011Z,4.70
2018-07-22T11:30:33.439Z,5.20
2018-07-22T11:31:08.855Z,5.90
2018-07-22T11:31:44.237Z,7.20
2018-07-22T11:32:19.540Z,6.70
2018-07-22T11:32:55.170Z,5.80
2018-07-22T11:33:30.422Z,5.00
2018-07-22T11:34:05.546Z,5.20
2018-07-22T11:34:40.825Z,5.30
2018-07-22T11:35:16.235Z,5.90
2018-07-22T11:35:51.504Z,6.40
2018-07-22T11:36:26.894Z,6.30
2018-07-22T11:37:01.820Z,6.50
2018-07-22T11:37:37.442Z,6.50
2018-07-22T11:38:12.754Z,5.30
2018-07-22T11:38:47.878Z,5.10
2018-07-22T11:39:23.529Z,4.50
2018-07-22T11:39:59.049Z,4.40
2018-07-22T11:40:34.359Z,5.10
2018-07-22T11:41:09.569Z,6.70
2018-07-22T11:41:44.889Z,6.80
2018-07-22T11:42:20.211Z,7.30
2018-07-22T11:42:55.400Z,7.00
2018-07-22T11:43:30.831Z,7.60
2018-07-22T11:44:06.329Z,6.00
2018-07-22T11:44:41.567Z,5.50
2018-07-22T11:45:16.766Z,5.90
2018-07-22T11:45:52.227Z,5.20
2018-07-22T11:46:27.883Z,6.70
2018-07-22T11:47:03.580Z,6.80
2018-07-22T11:47:38.724Z,6.50
2018-07-22T11:48:13.928Z,5.80
2018-07-22T11:48:49.264Z,6.40
2018-07-22T11:49:24.758Z,6.20
2018-07-22T11:49:59.985Z,5.30
2018-07-22T11:50:35.328Z,4.70
2018-07-22T11:51:10.754Z,6.00
2018-07-22T11:51:46.164Z,6.40
2018-07-22T11:52:21.914Z,6.40
2018-07-22T11:52:57.137Z,5.70
2018-07-22T11:53:32.569Z,8.40
2018-07-22T11:54:08.057Z,6.90
2018-07-22T11:54:43.470Z,5.70
2018-07-22T11:55:18.928Z,6.40
2018-07-22T11:55:54.343Z,6.70
2018-07-22T11:56:29.411Z,5.70
2018-07-22T11:57:05.217Z,6.30
2018-07-22T11:57:41.294Z,5.80
2018-07-22T11:58:16.427Z,6.80
2018-07-22T11:58:51.669Z,8.50
2018-07-22T11:59:27.184Z,7.30
2018-07-22T12:00:02.663Z,7.30
2018-07-22T12:00:38.837Z,8.40
2018-07-22T12:01:13.975Z,6.90
2018-07-22T12:01:49.217Z,6.70
2018-07-22T12:02:24.535Z,7.60
2018-07-22T12:02:59.785Z,6.40
2018-07-22T12:03:35.247Z,9.10
2018-07-22T12:04:10.724Z,8.90
2018-07-22T12:04:46.043Z,8.40
2018-07-22T12:05:21.399Z,7.60
2018-07-22T12:05:56.960Z,6.00
2018-07-22T12:06:32.386Z,6.50
2018-07-22T12:07:08.061Z,6.90
2018-07-22T12:07:43.407Z,6.20
2018-07-22T12:08:18.740Z,6.50
2018-07-22T12:08:54.078Z,6.60
2018-07-22T12:09:29.209Z,7.10
2018-07-22T12:10:04.512Z,6.70
2018-07-22T12:10:41.951Z,6.10
2018-07-22T12:11:17.694Z,6.90
2018-07-22T12:11:53.013Z,7.60
2018-07-22T12:12:28.450Z,7.50
2018-07-22T12:13:03.970Z,8.80
2018-07-22T12:13:39.308Z,6.00
2018-07-22T12:14:14.624Z,7.00
2018-07-22T12:14:50.052Z,8.40
2018-07-22T12:15:25.352Z,7.60
2018-07-22T12:16:01.116Z,8.80
2018-07-22T12:16:36.650Z,8.80
2018-07-22T12:17:11.907Z,7.80
2018-07-22T12:17:47.164Z,7.30
2018-07-22T12:18:22.785Z,6.80
2018-07-22T12:18:58.532Z,7.40
2018-07-22T12:19:33.871Z,6.90
2018-07-22T12:20:09.502Z,6.60
2018-07-22T12:20:45.027Z,6.60
2018-07-22T12:21:20.722Z,7.10
2018-07-22T12:21:56.098Z,7.10
2018-07-22T12:22:31.505Z,7.70
2018-07-22T12:23:07.016Z,6.00
2018-07-22T12:23:42.555Z,5.50
2018-07-22T12:24:17.969Z,6.60
2018-07-22T12:24:53.405Z,6.90
2018-07-22T12:25:28.912Z,4.90
2018-07-22T12:26:04.342Z,6.50
2018-07-22T12:26:39.601Z,6.80
2018-07-22T12:27:14.818Z,6.50
2018-07-22T12:27:50.347Z,5.80
2018-07-22T12:28:25.659Z,6.40
2018-07-22T12:29:01.034Z,6.50
2018-07-22T12:29:36.433Z,6.60
2018-07-22T12:30:11.589Z,7.20
2018-07-22T12:30:47.390Z,6.60
2018-07-22T12:31:22.893Z,7.70
2018-07-22T12:31:58.318Z,8.00
2018-07-22T12:32:33.696Z,6.90
2018-07-22T12:33:09.249Z,7.70
2018-07-22T12:33:44.453Z,7.30
2018-07-22T12:34:19.851Z,5.40
2018-07-22T12:34:55.429Z,5.50
2018-07-22T12:35:30.784Z,7.20
2018-07-22T12:36:06.330Z,7.70
2018-07-22T12:36:41.864Z,7.60
2018-07-22T12:37:17.369Z,5.90
2018-07-22T12:37:52.808Z,5.70
2018-07-22T12:38:28.331Z,6.40
2018-07-22T12:39:03.671Z,6.90
2018-07-22T12:39:38.929Z,7.50
2018-07-22T12:40:14.127Z,6.80
2018-07-22T12:40:49.396Z,6.30
2018-07-22T12:41:24.634Z,6.60
2018-07-22T12:42:00.296Z,6.00
2018-07-22T12:42:35.646Z,7.60
2018-07-22T12:43:11.101Z,6.10
2018-07-22T12:43:46.403Z,7.80
2018-07-22T12:44:21.945Z,6.90
2018-07-22T12:44:57.488Z,5.50
2018-07-22T12:45:32.924Z,5.70
2018-07-22T12:46:08.571Z,6.80
2018-07-22T12:46:44.025Z,6.60
2018-07-22T12:47:19.487Z,6.90
2018-07-22T12:47:54.786Z,8.00
2018-07-22T12:48:30.235Z,8.10
2018-07-22T12:49:05.551Z,6.40
2018-07-22T12:49:41.097Z,6.30
2018-07-22T12:50:16.474Z,6.20
2018-07-22T12:50:51.911Z,6.10
2018-07-22T12:51:27.468Z,7.50
2018-07-22T12:52:02.911Z,8.90
2018-07-22T12:52:38.245Z,6.30
2018-07-22T12:53:13.699Z,7.50
2018-07-22T12:53:49.158Z,10.90
2018-07-22T12:54:24.697Z,9.30
2018-07-22T12:55:00.055Z,6.20
2018-07-22T12:55:35.355Z,8.60
2018-07-22T12:56:10.689Z,6.60
2018-07-22T12:56:45.956Z,6.00
2018-07-22T12:57:21.225Z,6.70
2018-07-22T12:57:56.640Z,5.50
2018-07-22T12:58:32.072Z,4.70
2018-07-22T12:59:07.570Z,6.00
2018-07-22T12:59:43.140Z,7.00
2018-07-22T13:00:18.620Z,7.20
2018-07-22T13:00:54.163Z,6.70
2018-07-22T13:01:29.633Z,8.00
2018-07-22T13:02:04.938Z,10.40
2018-07-22T13:02:40.319Z,8.50
2018-07-22T13:03:15.543Z,5.70
2018-07-22T13:03:50.877Z,6.10
2018-07-22T13:04:26.083Z,10.60
2018-07-22T13:05:01.562Z,9.90
2018-07-22T13:05:37.087Z,6.40
2018-07-22T13:06:12.553Z,7.70
2018-07-22T13:06:47.784Z,7.60
2018-07-22T13:07:23.029Z,6.10
2018-07-22T13:07:58.893Z,5.90
2018-07-22T13:08:34.194Z,5.90
2018-07-22T13:09:09.742Z,6.40
2018-07-22T13:09:44.965Z,7.60
2018-07-22T13:10:20.215Z,6.60
2018-07-22T13:10:55.810Z,7.60
2018-07-22T13:11:31.544Z,7.20
2018-07-22T13:12:07.053Z,7.80
2018-07-22T13:12:42.499Z,9.40
2018-07-22T13:13:17.727Z,8.40
2018-07-22T13:13:52.963Z,7.40
2018-07-22T13:14:28.092Z,5.10
2018-07-22T13:15:03.321Z,5.50
2018-07-22T13:15:39.991Z,6.50
2018-07-22T13:16:15.445Z,6.40
2018-07-22T13:16:50.801Z,6.00
2018-07-22T13:17:26.657Z,8.00
2018-07-22T13:18:01.869Z,6.20
2018-07-22T13:18:37.077Z,8.00
2018-07-22T13:19:12.734Z,7.20
2018-07-22T13:19:47.895Z,8.00
2018-07-22T13:20:23.566Z,6.20
2018-07-22T13:20:59.446Z,6.20
2018-07-22T13:21:34.820Z,5.80
2018-07-22T13:22:10.349Z,8.10
2018-07-22T13:22:46.604Z,8.90
2018-07-22T13:23:22.035Z,6.90
2018-07-22T13:23:57.586Z,8.50
2018-07-22T13:24:33.046Z,6.50
2018-07-22T13:25:08.376Z,7.20
2018-07-22T13:25:44.857Z,7.20
2018-07-22T13:26:20.115Z,6.40
2018-07-22T13:26:55.445Z,6.40
2018-07-22T13:27:31.049Z,5.80
2018-07-22T13:28:06.641Z,5.20
2018-07-22T13:28:42.089Z,5.80
2018-07-22T13:29:17.524Z,5.60
2018-07-22T13:29:52.608Z,7.20
2018-07-22T13:30:28.040Z,8.60
2018-07-22T13:31:03.619Z,6.60
2018-07-22T13:31:39.251Z,5.50
2018-07-22T13:32:14.677Z,6.20
2018-07-22T13:32:50.231Z,5.80
2018-07-22T13:33:25.565Z,4.60
2018-07-22T13:34:01.047Z,4.70
2018-07-22T13:34:36.258Z,5.60
2018-07-22T13:35:11.577Z,5.30
2018-07-22T13:35:47.520Z,5.70
2018-07-22T13:36:22.995Z,5.60
2018-07-22T13:36:58.441Z,5.50
2018-07-22T13:37:33.882Z,5.70
2018-07-22T13:38:09.256Z,7.00
2018-07-22T13:38:44.570Z,5.70
2018-07-22T13:39:19.919Z,5.40
2018-07-22T13:39:55.280Z,7.10
2018-07-22T13:40:30.849Z,7.20
2018-07-22T13:41:05.980Z,6.00
2018-07-22T13:41:41.769Z,6.70
2018-07-22T13:42:16.870Z,7.40
2018-07-22T13:42:52.126Z,8.60
2018-07-22T13:43:27.368Z,12.60
2018-07-22T13:44:02.803Z,10.60
2018-07-22T13:44:38.187Z,5.80
2018-07-22T13:45:13.964Z,5.90
2018-07-22T13:45:49.117Z,6.70
2018-07-22T13:46:24.515Z,7.30
2018-07-22T13:46:59.956Z,8.70
2018-07-22T13:47:35.283Z,8.60
2018-07-22T13:48:10.636Z,6.90
2018-07-22T13:48:46.061Z,6.50
2018-07-22T13:49:21.707Z,7.10
2018-07-22T13:49:57.280Z,6.50
2018-07-22T13:50:32.742Z,6.10
2018-07-22T13:51:08.267Z,7.10
2018-07-22T13:51:44.339Z,8.00
2018-07-22T13:52:19.664Z,7.70
2018-07-22T13:52:55.038Z,6.60
2018-07-22T13:53:30.266Z,6.30
2018-07-22T13:54:05.854Z,6.20
2018-07-22T13:54:41.629Z,6.10
2018-07-22T13:55:16.662Z,5.90
2018-07-22T13:55:52.194Z,5.70
2018-07-22T13:56:27.685Z,4.80
2018-07-22T13:57:03.351Z,6.30
2018-07-22T13:57:39.045Z,7.50
2018-07-22T13:58:14.426Z,6.80
2018-07-22T13:58:49.877Z,6.00
2018-07-22T13:59:25.471Z,5.60
2018-07-22T14:00:00.919Z,5.60
2018-07-22T14:00:36.462Z,5.00
2018-07-22T14:01:11.745Z,5.10
2018-07-22T14:01:47.064Z,5.30
2018-07-22T14:02:22.411Z,6.20
2018-07-22T14:02:57.940Z,5.20
2018-07-22T14:03:33.293Z,8.10
2018-07-22T14:04:08.417Z,8.60
2018-07-22T14:04:43.961Z,7.10
2018-07-22T14:05:19.336Z,6.50
2018-07-22T14:05:55.013Z,6.20
2018-07-22T14:06:30.373Z,5.20
2018-07-22T14:07:05.517Z,6.40
2018-07-22T14:07:40.770Z,6.20
2018-07-22T14:08:15.918Z,6.50
2018-07-22T14:08:51.458Z,7.00
2018-07-22T14:09:26.570Z,6.30
2018-07-22T14:10:01.822Z,5.10
2018-07-22T14:10:36.852Z,6.80
2018-07-22T14:11:12.115Z,5.20
2018-07-22T14:11:47.436Z,5.60
2018-07-22T14:12:22.823Z,6.00
2018-07-22T14:12:57.977Z,6.00
2018-07-22T14:13:33.531Z,5.70
2018-07-22T14:14:09.030Z,4.90
2018-07-22T14:14:44.359Z,6.30
2018-07-22T14:15:19.799Z,6.90
2018-07-22T14:15:55.328Z,6.40
2018-07-22T14:16:30.620Z,6.00
2018-07-22T14:17:06.049Z,9.30
2018-07-22T14:17:44.206Z,9.00
2018-07-22T14:18:19.523Z,5.80
2018-07-22T14:18:54.878Z,7.80
2018-07-22T14:19:30.421Z,6.80
2018-07-22T14:20:05.701Z,5.90
2018-07-22T14:20:41.228Z,7.50
2018-07-22T14:21:16.594Z,6.70
2018-07-22T14:21:51.993Z,5.50
2018-07-22T14:22:27.634Z,6.40
2018-07-22T14:23:02.952Z,6.40
2018-07-22T14:23:38.402Z,5.90
2018-07-22T14:24:13.547Z,4.90
2018-07-22T14:24:48.776Z,5.60
2018-07-22T14:25:23.828Z,5.40
2018-07-22T14:25:59.161Z,7.00
2018-07-22T14:26:34.649Z,8.00
2018-07-22T14:27:09.758Z,6.70
2018-07-22T14:27:45.263Z,6.20
2018-07-22T14:28:20.685Z,6.80
2018-07-22T14:28:55.896Z,9.20
2018-07-22T14:29:31.181Z,8.90
2018-07-22T14:30:06.608Z,6.50
2018-07-22T14:30:42.109Z,5.10
2018-07-22T14:31:17.482Z,5.00
2018-07-22T14:31:52.735Z,7.20
2018-07-22T14:32:28.133Z,7.00
2018-07-22T14:33:03.777Z,7.60
2018-07-22T14:33:39.312Z,10.10
2018-07-22T14:34:14.757Z,8.90
2018-07-22T14:34:50.133Z,5.80
2018-07-22T14:35:25.850Z,7.40
2018-07-22T14:36:00.887Z,6.80
2018-07-22T14:36:36.331Z,5.40
2018-07-22T14:37:11.842Z,5.60
2018-07-22T14:37:47.165Z,6.60
2018-07-22T14:38:22.315Z,6.10
2018-07-22T14:38:57.418Z,4.90
2018-07-22T14:39:32.907Z,7.20
2018-07-22T14:40:08.127Z,7.70
2018-07-22T14:40:43.599Z,5.90
2018-07-22T14:41:19.140Z,5.70
2018-07-22T14:41:54.353Z,7.70
2018-07-22T14:42:29.979Z,7.90
2018-07-22T14:43:05.519Z,6.50
2018-07-22T14:43:41.365Z,6.80
2018-07-22T14:44:16.477Z,6.40
2018-07-22T14:44:52.024Z,6.60
2018-07-22T14:45:27.336Z,6.50
2018-07-22T14:46:02.781Z,5.90
2018-07-22T14:46:38.234Z,7.30
2018-07-22T14:47:13.616Z,7.80
2018-07-22T14:47:48.982Z,6.40
2018-07-22T14:48:24.391Z,5.50
2018-07-22T14:48:59.853Z,5.60
2018-07-22T14:49:35.409Z,5.90
2018-07-22T14:50:10.956Z,7.30
2018-07-22T14:50:46.852Z,6.90
2018-07-22T14:51:22.430Z,6.00
2018-07-22T14:51:57.998Z,6.30
2018-07-22T14:52:33.376Z,6.00
2018-07-22T14:53:08.798Z,6.00
2018-07-22T14:53:44.167Z,6.70
2018-07-22T14:54:19.569Z,5.20
2018-07-22T14:54:54.950Z,6.00
2018-07-22T14:55:30.388Z,7.00
2018-07-22T14:56:05.798Z,7.30
2018-07-22T14:56:41.411Z,7.70
2018-07-22T14:57:16.835Z,6.10
2018-07-22T14:57:52.335Z,10.60
2018-07-22T14:58:27.666Z,10.30
2018-07-22T14:59:03.090Z,6.20
2018-07-22T14:59:38.405Z,6.50
2018-07-22T15:00:13.545Z,8.40
2018-07-22T15:00:50.041Z,6.60
2018-07-22T15:01:25.825Z,6.50
2018-07-22T15:02:01.084Z,6.20
2018-07-22T15:02:36.557Z,5.70
2018-07-22T15:03:11.912Z,8.70
2018-07-22T15:03:47.225Z,8.40
2018-07-22T15:04:22.667Z,7.00
2018-07-22T15:04:58.170Z,8.70
2018-07-22T15:05:33.546Z,8.50
2018-07-22T15:06:09.096Z,6.80
2018-07-22T15:06:44.580Z,5.90
2018-07-22T15:07:20.088Z,6.00
2018-07-22T15:07:55.458Z,6.10
2018-07-22T15:08:30.709Z,5.50
2018-07-22T15:09:06.116Z,7.60
2018-07-22T15:09:41.749Z,8.80
2018-07-22T15:10:17.266Z,7.00
2018-07-22T15:10:52.725Z,8.00
2018-07-22T15:11:28.152Z,9.00
2018-07-22T15:12:03.827Z,7.20
2018-07-22T15:12:38.980Z,8.60
2018-07-22T15:13:14.397Z,8.10
2018-07-22T15:13:49.828Z,6.70
2018-07-22T15:14:25.364Z,10.50
2018-07-22T15:15:00.740Z,10.40
2018-07-22T15:15:36.161Z,8.10
2018-07-22T15:16:11.211Z,9.10
2018-07-22T15:16:46.441Z,7.00
2018-07-22T15:17:21.867Z,6.80
2018-07-22T15:17:57.506Z,6.40
2018-07-22T15:18:33.048Z,6.00
2018-07-22T15:19:08.356Z,5.80
2018-07-22T15:19:44.125Z,6.00
2018-07-22T15:20:19.438Z,8.20
2018-07-22T15:20:55.096Z,8.60
2018-07-22T15:21:30.522Z,6.40
2018-07-22T15:22:06.070Z,5.60
2018-07-22T15:22:42.370Z,5.20
2018-07-22T15:23:17.678Z,7.00
2018-07-22T15:23:53.219Z,7.20
2018-07-22T15:24:28.561Z,5.80
2018-07-22T15:25:03.832Z,6.90
2018-07-22T15:25:39.557Z,6.00
2018-07-22T15:26:15.024Z,6.20
2018-07-22T15:26:50.427Z,7.60
2018-07-22T15:27:25.785Z,5.60
2018-07-22T15:28:00.895Z,5.40
2018-07-22T15:28:36.089Z,5.40
2018-07-22T15:29:11.661Z,5.20
2018-07-22T15:29:46.937Z,5.50
2018-07-22T15:30:22.274Z,6.10
2018-07-22T15:30:57.920Z,7.40
2018-07-22T15:31:33.212Z,7.90
2018-07-22T15:32:08.523Z,7.50
2018-07-22T15:32:44.160Z,9.10
2018-07-22T15:33:19.367Z,9.40
2018-07-22T15:33:54.740Z,8.40
2018-07-22T15:34:29.849Z,10.90
2018-07-22T15:35:05.110Z,10.80
2018-07-22T15:35:40.763Z,7.30
2018-07-22T15:36:16.019Z,6.60
2018-07-22T15:36:51.558Z,6.00
2018-07-22T15:37:26.786Z,6.90
2018-07-22T15:38:01.835Z,7.30
2018-07-22T15:38:37.379Z,7.40
2018-07-22T15:39:12.534Z,7.50
2018-07-22T15:39:47.850Z,7.50
2018-07-22T15:40:23.405Z,6.40
2018-07-22T15:40:58.745Z,6.70
2018-07-22T15:41:33.945Z,6.10